Time;durP1;ratioP1;P1;durP2;ratioP2;P2;SDS_P1;SDS_P2;PMS_P1;PMS_P2;Temp;Humidity;BMP_temperature;BMP_pressure;BME280_temperature;BME280_humidity;BME280_pressure;Samples;Min_cycle;Max_cycle;Signal;HPM_P1;HPM_P2
2021/08/13 00:00:35;;;;;;;;;;;16.90;99.90;;;;;;5095499;28;19916;-71
2021/08/13 00:03:01;;;;;;;;;;;16.80;99.90;;;;;;5095420;28;19915;-71
2021/08/13 00:05:26;;;;;;;;;;;16.80;99.90;;;;;;5095402;28;19955;-71
2021/08/13 00:07:52;;;;;;;;;;;16.80;99.90;;;;;;5095338;28;19908;-71
2021/08/13 00:10:17;;;;;;;;;;;16.70;99.90;;;;;;5095240;28;19912;-71
2021/08/13 00:12:43;;;;;;;;;;;16.70;99.90;;;;;;5095238;28;19908;-71
2021/08/13 00:15:09;;;;;;;;;;;16.70;99.90;;;;;;5094315;28;19915;-71
2021/08/13 00:17:35;;;;;;;;;;;16.60;99.90;;;;;;5076987;28;19912;-71
2021/08/13 00:20:00;;;;;;;;;;;16.60;99.90;;;;;;5095100;28;19969;-71
2021/08/13 00:22:27;;;;;;;;;;;16.60;99.90;;;;;;5095352;28;19950;-71
2021/08/13 00:24:52;;;;;;;;;;;16.60;99.90;;;;;;5095342;28;19908;-71
2021/08/13 00:27:18;;;;;;;;;;;16.60;99.90;;;;;;5095231;28;19915;-71
2021/08/13 00:29:43;;;;;;;;;;;16.60;99.90;;;;;;5094624;28;20389;-71
2021/08/13 00:32:09;;;;;;;;;;;16.60;99.90;;;;;;5094889;28;20285;-71
2021/08/13 00:34:34;;;;;;;;;;;16.50;99.90;;;;;;5095122;28;20350;-71
2021/08/13 00:37:00;;;;;;;;;;;16.50;99.90;;;;;;5095075;28;19912;-71
2021/08/13 00:39:25;;;;;;;;;;;16.50;99.90;;;;;;5095026;28;19908;-71
2021/08/13 00:41:51;;;;;;;;;;;16.50;99.90;;;;;;5094974;28;19912;-71
2021/08/13 00:44:16;;;;;;;;;;;16.40;99.90;;;;;;5094972;28;19961;-71
2021/08/13 00:46:42;;;;;;;;;;;16.50;99.90;;;;;;5094951;28;19915;-71
2021/08/13 00:49:07;;;;;;;;;;;16.50;99.90;;;;;;5094883;28;19908;-71
2021/08/13 00:51:33;;;;;;;;;;;16.50;99.90;;;;;;5076344;28;19965;-71
2021/08/13 00:53:59;;;;;;;;;;;16.50;99.90;;;;;;5094549;28;20011;-71
2021/08/13 00:56:25;;;;;;;;;;;16.50;99.90;;;;;;5094782;28;19923;-71
2021/08/13 00:58:50;;;;;;;;;;;16.50;99.90;;;;;;5076797;28;20057;-71
2021/08/13 01:01:16;;;;;;;;;;;16.50;99.90;;;;;;5094389;28;19908;-71
2021/08/13 01:03:41;;;;;;;;;;;16.50;99.90;;;;;;5094351;28;19915;-71
2021/08/13 01:06:09;;;;;;;;;;;16.40;99.90;;;;;;5094352;28;19919;-71
2021/08/13 01:08:35;;;;;;;;;;;16.40;99.90;;;;;;5094305;28;19908;-71
2021/08/13 01:11:01;;;;;;;;;;;16.40;99.90;;;;;;5094183;28;19919;-71
2021/08/13 01:13:47;;;;;;;;;;;16.40;99.90;;;;;;5076483;28;19919;-71
2021/08/13 01:16:14;;;;;;;;;;;16.40;99.90;;;;;;5075908;28;20295;-71
2021/08/13 01:18:43;;;;;;;;;;;16.40;99.90;;;;;;5094432;28;19934;-71
2021/08/13 01:21:11;;;;;;;;;;;16.30;99.90;;;;;;5094408;28;19991;-71
2021/08/13 01:23:39;;;;;;;;;;;16.30;99.90;;;;;;5094395;28;19915;-71
2021/08/13 01:26:06;;;;;;;;;;;16.20;99.90;;;;;;5094206;28;19915;-71
2021/08/13 01:28:37;;;;;;;;;;;16.20;99.90;;;;;;5094325;28;19954;-71
2021/08/13 01:31:07;;;;;;;;;;;16.20;99.90;;;;;;5093832;28;19970;-71
2021/08/13 01:33:33;;;;;;;;;;;16.20;99.90;;;;;;5093951;28;20242;-71
2021/08/13 01:36:01;;;;;;;;;;;16.20;99.90;;;;;;5094272;28;19915;-70
2021/08/13 01:38:27;;;;;;;;;;;16.20;99.90;;;;;;5093958;28;19908;-71
2021/08/13 01:40:55;;;;;;;;;;;16.20;99.90;;;;;;5094522;28;19916;-71
2021/08/13 01:43:23;;;;;;;;;;;16.20;99.90;;;;;;5094507;28;19909;-71
2021/08/13 01:45:49;;;;;;;;;;;16.20;99.90;;;;;;5076139;28;19916;-71
2021/08/13 01:48:15;;;;;;;;;;;16.20;99.90;;;;;;5094165;28;19908;-71
2021/08/13 01:50:41;;;;;;;;;;;16.20;99.90;;;;;;5094077;28;19920;-71
2021/08/13 01:53:07;;;;;;;;;;;16.20;99.90;;;;;;5094124;28;19908;-71
2021/08/13 01:55:33;;;;;;;;;;;16.20;99.90;;;;;;5094153;28;19914;-71
2021/08/13 01:57:59;;;;;;;;;;;16.20;99.90;;;;;;5094074;28;19908;-71
2021/08/13 02:00:25;;;;;;;;;;;16.20;99.90;;;;;;5094033;28;20250;-71
2021/08/13 02:02:51;;;;;;;;;;;16.20;99.90;;;;;;5094021;28;19959;-71
2021/08/13 02:05:19;;;;;;;;;;;16.30;99.90;;;;;;5094005;28;19912;-71
2021/08/13 02:07:46;;;;;;;;;;;16.30;99.90;;;;;;5093679;28;19908;-71
2021/08/13 02:10:12;;;;;;;;;;;16.30;99.90;;;;;;5093566;28;19912;-71
2021/08/13 02:12:37;;;;;;;;;;;16.30;99.90;;;;;;5094221;28;19957;-71
2021/08/13 02:15:04;;;;;;;;;;;16.30;99.90;;;;;;5075891;28;20002;-71
2021/08/13 02:17:30;;;;;;;;;;;16.30;99.90;;;;;;5075873;28;20378;-71
2021/08/13 02:20:06;;;;;;;;;;;16.30;99.90;;;;;;5075462;28;20006;-71
2021/08/13 02:22:31;;;;;;;;;;;16.30;99.90;;;;;;5093501;28;20007;-71
2021/08/13 02:24:57;;;;;;;;;;;16.20;99.90;;;;;;5094098;28;20434;-71
2021/08/13 02:27:25;;;;;;;;;;;16.20;99.90;;;;;;5076213;28;19908;-71
2021/08/13 02:29:51;;;;;;;;;;;16.20;99.90;;;;;;5093403;28;19916;-71
2021/08/13 02:32:16;;;;;;;;;;;16.20;99.90;;;;;;5093458;28;19915;-70
2021/08/13 02:34:42;;;;;;;;;;;16.20;99.90;;;;;;5093702;28;20365;-71
2021/08/13 02:37:10;;;;;;;;;;;16.20;99.90;;;;;;5093698;28;20018;-71
2021/08/13 02:39:46;;;;;;;;;;;16.10;99.90;;;;;;5097272;28;19912;-71
2021/08/13 02:42:13;;;;;;;;;;;16.10;99.90;;;;;;5097335;28;19962;-71
2021/08/13 02:44:39;;;;;;;;;;;16.10;99.90;;;;;;5097337;28;19909;-71
2021/08/13 02:47:07;;;;;;;;;;;16.10;99.90;;;;;;5079202;28;19915;-71
2021/08/13 02:49:35;;;;;;;;;;;16.00;99.90;;;;;;5097240;28;19908;-71
2021/08/13 02:52:04;;;;;;;;;;;16.00;99.90;;;;;;5078535;28;20284;-71
2021/08/13 02:54:30;;;;;;;;;;;15.90;99.90;;;;;;5097077;28;19961;-71
2021/08/13 02:56:56;;;;;;;;;;;15.90;99.90;;;;;;5078615;28;19908;-70
2021/08/13 02:59:23;;;;;;;;;;;15.90;99.90;;;;;;5096971;28;20273;-71
2021/08/13 03:01:51;;;;;;;;;;;15.80;99.90;;;;;;5097232;28;19916;-71
2021/08/13 03:04:17;;;;;;;;;;;15.80;99.90;;;;;;5097209;28;19916;-71
2021/08/13 03:06:43;;;;;;;;;;;15.80;99.90;;;;;;5097137;28;19908;-71
2021/08/13 03:09:09;;;;;;;;;;;15.80;99.90;;;;;;5097098;28;19912;-71
2021/08/13 03:11:36;;;;;;;;;;;15.80;99.90;;;;;;5078588;28;19919;-71
2021/08/13 03:14:02;;;;;;;;;;;15.70;99.90;;;;;;5096751;28;19999;-71
2021/08/13 03:16:28;;;;;;;;;;;15.70;99.90;;;;;;5096718;28;20335;-71
2021/08/13 03:18:54;;;;;;;;;;;15.70;99.90;;;;;;5078550;28;19943;-71
2021/08/13 03:21:20;;;;;;;;;;;15.70;99.90;;;;;;5096313;28;19915;-71
2021/08/13 03:23:46;;;;;;;;;;;15.60;99.90;;;;;;5096581;28;19908;-71
2021/08/13 03:26:12;;;;;;;;;;;15.60;99.90;;;;;;5096522;28;19915;-71
2021/08/13 03:28:37;;;;;;;;;;;15.60;99.90;;;;;;5078602;28;20375;-71
2021/08/13 03:31:03;;;;;;;;;;;15.60;99.90;;;;;;5096382;28;19927;-71
2021/08/13 03:33:28;;;;;;;;;;;15.60;99.90;;;;;;5096644;28;20345;-71
2021/08/13 03:35:55;;;;;;;;;;;15.60;99.90;;;;;;5096619;28;20306;-70
2021/08/13 03:38:20;;;;;;;;;;;15.60;99.90;;;;;;5096233;28;19915;-70
2021/08/13 03:40:46;;;;;;;;;;;15.60;99.90;;;;;;5096216;28;19908;-71
2021/08/13 03:43:11;;;;;;;;;;;15.60;99.90;;;;;;5096145;28;19908;-71
2021/08/13 03:45:37;;;;;;;;;;;15.50;99.90;;;;;;5095810;28;19919;-70
2021/08/13 03:48:02;;;;;;;;;;;15.50;99.90;;;;;;5077713;28;19943;-71
2021/08/13 03:50:28;;;;;;;;;;;15.50;99.90;;;;;;5095691;28;19912;-70
2021/08/13 03:52:53;;;;;;;;;;;15.50;99.90;;;;;;5077613;28;19908;-71
2021/08/13 03:55:19;;;;;;;;;;;15.40;99.90;;;;;;5095591;28;19908;-70
2021/08/13 03:57:44;;;;;;;;;;;15.50;99.90;;;;;;5095873;28;20372;-71
2021/08/13 04:00:10;;;;;;;;;;;15.50;99.90;;;;;;5095801;28;19908;-70
2021/08/13 04:02:36;;;;;;;;;;;15.50;99.90;;;;;;5095482;28;19908;-70
2021/08/13 04:05:02;;;;;;;;;;;15.50;99.90;;;;;;5095427;28;19908;-71
2021/08/13 04:07:27;;;;;;;;;;;15.50;99.90;;;;;;5095383;28;19912;-70
2021/08/13 04:09:53;;;;;;;;;;;15.60;99.90;;;;;;5095298;28;20280;-71
2021/08/13 04:12:19;;;;;;;;;;;15.60;99.90;;;;;;5095288;28;19912;-70
2021/08/13 04:14:44;;;;;;;;;;;15.60;99.90;;;;;;5078251;28;20238;-71
2021/08/13 04:17:10;;;;;;;;;;;15.60;99.90;;;;;;5095496;28;19915;-70
2021/08/13 04:19:35;;;;;;;;;;;15.60;99.90;;;;;;5095728;28;19999;-71
2021/08/13 04:22:02;;;;;;;;;;;15.60;99.90;;;;;;5095393;28;20307;-71
2021/08/13 04:24:27;;;;;;;;;;;15.60;99.90;;;;;;5095368;28;19912;-71
2021/08/13 04:26:53;;;;;;;;;;;15.60;99.90;;;;;;5095596;28;19956;-71
2021/08/13 04:29:18;;;;;;;;;;;15.50;99.90;;;;;;5095537;28;20002;-71
2021/08/13 04:31:43;;;;;;;;;;;15.50;99.90;;;;;;5095134;28;20288;-70
2021/08/13 04:34:09;;;;;;;;;;;15.50;99.90;;;;;;5095216;28;19957;-71
2021/08/13 04:36:34;;;;;;;;;;;15.60;99.90;;;;;;5095200;28;19908;-70
2021/08/13 04:39:00;;;;;;;;;;;15.70;99.90;;;;;;5076568;28;20011;-71
2021/08/13 04:41:25;;;;;;;;;;;15.60;99.90;;;;;;5095082;28;19908;-70
2021/08/13 04:43:51;;;;;;;;;;;15.60;99.90;;;;;;5077197;28;20382;-71
2021/08/13 04:46:16;;;;;;;;;;;15.60;99.90;;;;;;5094992;28;19991;-71
2021/08/13 04:48:41;;;;;;;;;;;15.70;99.90;;;;;;5094916;28;19915;-71
2021/08/13 04:51:07;;;;;;;;;;;15.80;99.90;;;;;;5076975;28;19919;-70
2021/08/13 04:53:37;;;;;;;;;;;15.80;99.90;;;;;;5076972;28;19953;-70
2021/08/13 04:56:03;;;;;;;;;;;15.90;99.90;;;;;;5094561;28;20010;-71
2021/08/13 04:58:28;;;;;;;;;;;16.10;99.90;;;;;;5076385;28;19962;-70
2021/08/13 05:00:56;;;;;;;;;;;16.20;99.90;;;;;;5094024;28;19908;-70
2021/08/13 05:03:21;;;;;;;;;;;16.20;99.90;;;;;;5076984;28;19916;-71
2021/08/13 05:05:47;;;;;;;;;;;16.30;99.90;;;;;;5094659;28;19916;-71
2021/08/13 05:08:13;;;;;;;;;;;16.40;99.90;;;;;;5094618;28;19915;-70
2021/08/13 05:10:39;;;;;;;;;;;16.50;99.90;;;;;;5094467;28;19912;-70
2021/08/13 05:13:04;;;;;;;;;;;16.60;99.90;;;;;;5094212;28;20394;-71
2021/08/13 05:15:30;;;;;;;;;;;16.60;99.90;;;;;;5094207;28;19954;-70
2021/08/13 05:17:55;;;;;;;;;;;16.70;99.90;;;;;;5094447;28;20349;-70
2021/08/13 05:20:21;;;;;;;;;;;16.70;99.90;;;;;;5094218;28;20440;-71
2021/08/13 05:22:46;;;;;;;;;;;16.80;99.90;;;;;;5094143;28;20384;-71
2021/08/13 05:25:14;;;;;;;;;;;17.00;99.90;;;;;;5094372;28;19986;-71
2021/08/13 05:27:40;;;;;;;;;;;17.20;99.90;;;;;;5094369;28;19908;-70
2021/08/13 05:30:06;;;;;;;;;;;17.30;99.90;;;;;;5094011;28;20297;-70
2021/08/13 05:32:32;;;;;;;;;;;17.40;99.90;;;;;;5075915;28;19916;-70
2021/08/13 05:34:57;;;;;;;;;;;17.60;99.90;;;;;;5093978;28;19912;-70
2021/08/13 05:37:23;;;;;;;;;;;17.80;99.90;;;;;;5093941;28;19909;-71
2021/08/13 05:39:48;;;;;;;;;;;17.90;99.90;;;;;;5093975;28;19908;-71
2021/08/13 05:42:14;;;;;;;;;;;18.00;99.90;;;;;;5093929;28;20303;-71
2021/08/13 05:44:39;;;;;;;;;;;18.30;99.90;;;;;;5093869;28;19954;-71
2021/08/13 05:47:05;;;;;;;;;;;18.60;99.90;;;;;;5094146;28;20354;-71
2021/08/13 05:49:31;;;;;;;;;;;19.40;99.90;;;;;;5094423;28;19956;-71
2021/08/13 05:51:58;;;;;;;;;;;20.90;99.90;;;;;;5094009;28;20336;-71
2021/08/13 05:54:23;;;;;;;;;;;21.90;99.90;;;;;;5075652;28;19930;-72
2021/08/13 05:56:49;;;;;;;;;;;23.00;99.90;;;;;;5076012;28;19955;-72
2021/08/13 05:59:14;;;;;;;;;;;23.80;99.90;;;;;;5093939;28;19908;-72
2021/08/13 06:01:40;;;;;;;;;;;24.80;99.90;;;;;;5093945;28;20310;-72
2021/08/13 06:04:05;;;;;;;;;;;25.10;99.90;;;;;;5093967;28;19914;-72
2021/08/13 06:06:31;;;;;;;;;;;25.00;99.90;;;;;;5093627;28;20385;-72
2021/08/13 06:08:56;;;;;;;;;;;26.00;99.90;;;;;;5075748;28;20246;-72
2021/08/13 06:11:21;;;;;;;;;;;25.70;99.90;;;;;;5093575;28;19970;-72
2021/08/13 06:13:47;;;;;;;;;;;25.90;99.90;;;;;;5078053;28;19912;-73
2021/08/13 06:16:16;;;;;;;;;;;25.80;99.90;;;;;;5097498;28;19908;-72
2021/08/13 06:18:41;;;;;;;;;;;26.10;99.90;;;;;;5097689;28;20350;-72
2021/08/13 06:21:07;;;;;;;;;;;26.00;99.90;;;;;;5097631;28;19918;-73
2021/08/13 06:23:32;;;;;;;;;;;26.00;99.90;;;;;;5097576;28;19999;-72
2021/08/13 06:25:58;;;;;;;;;;;26.50;99.90;;;;;;5097341;28;20449;-72
2021/08/13 06:28:23;;;;;;;;;;;26.70;99.90;;;;;;5097565;28;20353;-72
2021/08/13 06:30:49;;;;;;;;;;;26.40;99.90;;;;;;5097209;28;20005;-71
2021/08/13 06:33:14;;;;;;;;;;;26.20;99.90;;;;;;5096295;28;19919;-72
2021/08/13 06:35:40;;;;;;;;;;;26.40;99.90;;;;;;5077939;28;19912;-72
2021/08/13 06:38:05;;;;;;;;;;;26.90;99.90;;;;;;5096466;28;19920;-72
2021/08/13 06:40:32;;;;;;;;;;;27.90;99.90;;;;;;5096934;28;20397;-73
2021/08/13 06:42:57;;;;;;;;;;;27.90;99.90;;;;;;5097003;28;20003;-73
2021/08/13 06:45:23;;;;;;;;;;;27.20;99.90;;;;;;5097512;28;19962;-73
2021/08/13 06:47:49;;;;;;;;;;;27.30;99.90;;;;;;5097379;28;20053;-73
2021/08/13 06:50:15;;;;;;;;;;;27.30;99.90;;;;;;5096848;28;19947;-73
2021/08/13 06:52:41;;;;;;;;;;;27.20;99.90;;;;;;5097071;28;20388;-73
2021/08/13 06:55:07;;;;;;;;;;;26.70;99.90;;;;;;5097006;28;19916;-73
2021/08/13 06:57:33;;;;;;;;;;;26.70;99.90;;;;;;5096613;28;20385;-73
2021/08/13 07:00:14;;;;;;;;;;;27.10;99.90;;;;;;5096671;28;19957;-73
2021/08/13 07:02:40;;;;;;;;;;;26.80;99.90;;;;;;5096629;28;19994;-73
2021/08/13 07:05:06;;;;;;;;;;;27.30;99.90;;;;;;5096521;28;19940;-73
2021/08/13 07:07:31;;;;;;;;;;;27.70;99.90;;;;;;5079012;28;19912;-73
2021/08/13 07:09:57;;;;;;;;;;;27.40;99.90;;;;;;5078297;28;20385;-73
2021/08/13 07:12:23;;;;;;;;;;;26.70;99.90;;;;;;5096867;28;19919;-73
2021/08/13 07:14:48;;;;;;;;;;;26.50;99.90;;;;;;5093843;28;19908;-73
2021/08/13 07:17:14;;;;;;;;;;;26.90;99.90;;;;;;5092866;28;19919;-72
2021/08/13 07:19:39;;;;;;;;;;;26.80;99.90;;;;;;5096135;28;19909;-72
2021/08/13 07:22:04;;;;;;;;;;;26.40;99.90;;;;;;5096112;28;19908;-72
2021/08/13 07:24:30;;;;;;;;;;;26.80;99.90;;;;;;5095942;28;19908;-72
2021/08/13 07:26:55;;;;;;;;;;;26.50;99.90;;;;;;5095963;28;20292;-72
2021/08/13 07:29:22;;;;;;;;;;;26.70;99.90;;;;;;5096331;28;20020;-73
2021/08/13 07:31:48;;;;;;;;;;;27.30;99.90;;;;;;5058890;28;19920;-72
2021/08/13 07:34:14;;;;;;;;;;;27.10;99.90;;;;;;5095807;28;19909;-72
2021/08/13 07:36:39;;;;;;;;;;;27.10;99.90;;;;;;5077950;28;19908;-72
2021/08/13 07:39:04;;;;;;;;;;;27.20;99.90;;;;;;5095828;28;19915;-72
2021/08/13 07:41:30;;;;;;;;;;;27.20;99.90;;;;;;5095746;28;19908;-73
2021/08/13 07:43:55;;;;;;;;;;;26.90;99.90;;;;;;5095754;28;19965;-72
2021/08/13 07:46:21;;;;;;;;;;;26.40;99.90;;;;;;5095613;28;19948;-72
2021/08/13 07:48:46;;;;;;;;;;;26.20;99.90;;;;;;5095668;28;19969;-72
2021/08/13 07:51:12;;;;;;;;;;;26.20;99.90;;;;;;5095580;28;20417;-72
2021/08/13 07:53:37;;;;;;;;;;;26.30;99.90;;;;;;5095326;28;19963;-72
2021/08/13 07:56:03;;;;;;;;;;;26.40;99.90;;;;;;5098145;28;20031;-72
2021/08/13 07:58:28;;;;;;;;;;;26.60;99.90;;;;;;5069831;28;19908;-72
2021/08/13 08:00:54;;;;;;;;;;;26.20;99.90;;;;;;5095223;28;19956;-72
2021/08/13 08:03:19;;;;;;;;;;;26.50;99.90;;;;;;5095204;28;19912;-72
2021/08/13 08:05:45;;;;;;;;;;;26.50;99.90;;;;;;5094985;28;19915;-72
2021/08/13 08:08:11;;;;;;;;;;;26.70;99.90;;;;;;5076598;28;19931;-72
2021/08/13 08:10:37;;;;;;;;;;;26.90;99.90;;;;;;5094851;28;20364;-72
2021/08/13 08:13:03;;;;;;;;;;;26.60;99.90;;;;;;5077149;28;19908;-72
2021/08/13 08:15:28;;;;;;;;;;;26.60;99.90;;;;;;5094853;28;19919;-72
2021/08/13 08:17:54;;;;;;;;;;;27.40;99.90;;;;;;5095197;28;19912;-72
2021/08/13 08:20:19;;;;;;;;;;;27.10;99.90;;;;;;5077219;28;19908;-72
2021/08/13 08:22:45;;;;;;;;;;;27.00;99.90;;;;;;5095328;28;19908;-72
2021/08/13 08:25:10;;;;;;;;;;;27.40;99.90;;;;;;5076834;28;19915;-72
2021/08/13 08:27:36;;;;;;;;;;;27.10;99.90;;;;;;5077009;28;19912;-72
2021/08/13 08:30:02;;;;;;;;;;;27.40;99.90;;;;;;5094391;28;19916;-72
2021/08/13 08:32:27;;;;;;;;;;;27.00;99.90;;;;;;5095166;28;19958;-72
2021/08/13 08:34:53;;;;;;;;;;;26.90;99.90;;;;;;5075995;28;20276;-70
2021/08/13 08:37:18;;;;;;;;;;;27.20;99.90;;;;;;5094197;28;19908;-70
2021/08/13 08:39:45;;;;;;;;;;;27.00;99.90;;;;;;5094801;28;19909;-70
2021/08/13 08:42:12;;;;;;;;;;;27.10;99.90;;;;;;5076147;28;19909;-69
2021/08/13 08:44:37;;;;;;;;;;;27.10;99.90;;;;;;5094728;28;19913;-69
2021/08/13 08:47:03;;;;;;;;;;;27.20;99.90;;;;;;5094868;28;19908;-70
2021/08/13 08:49:29;;;;;;;;;;;27.40;99.90;;;;;;5094716;28;19908;-70
2021/08/13 08:51:55;;;;;;;;;;;27.70;99.90;;;;;;5094586;28;20426;-70
2021/08/13 08:54:24;;;;;;;;;;;27.80;99.90;;;;;;5094470;28;20056;-69
2021/08/13 08:56:49;;;;;;;;;;;28.20;99.90;;;;;;5094362;28;19908;-70
2021/08/13 08:59:16;;;;;;;;;;;27.90;99.90;;;;;;5094230;28;19953;-70
2021/08/13 09:01:41;;;;;;;;;;;28.10;99.90;;;;;;5094746;28;19913;-70
2021/08/13 09:04:07;;;;;;;;;;;28.10;99.90;;;;;;5094827;28;19912;-70
2021/08/13 09:06:32;;;;;;;;;;;28.20;99.90;;;;;;5094736;28;19908;-70
2021/08/13 09:08:58;;;;;;;;;;;28.40;99.90;;;;;;5094134;28;19908;-70
2021/08/13 09:11:25;;;;;;;;;;;28.60;99.90;;;;;;5075966;28;20361;-70
2021/08/13 09:13:58;;;;;;;;;;;28.70;99.90;;;;;;5094446;28;19931;-70
2021/08/13 09:16:24;;;;;;;;;;;29.40;99.90;;;;;;5094102;28;19947;-70
2021/08/13 09:18:56;;;;;;;;;;;30.00;99.90;;;;;;5094091;28;19908;-70
2021/08/13 09:21:21;;;;;;;;;;;30.30;99.90;;;;;;5094376;28;19908;-70
2021/08/13 09:23:47;;;;;;;;;;;29.90;99.90;;;;;;5094321;28;19935;-70
2021/08/13 09:26:15;;;;;;;;;;;28.90;99.90;;;;;;5075865;28;19961;-70
2021/08/13 09:28:42;;;;;;;;;;;28.90;99.90;;;;;;5093938;28;20003;-70
2021/08/13 09:31:09;;;;;;;;;;;28.90;99.90;;;;;;5093699;28;19930;-70
2021/08/13 09:33:34;;;;;;;;;;;29.90;99.90;;;;;;5094475;28;20273;-70
2021/08/13 09:36:00;;;;;;;;;;;30.50;99.90;;;;;;5094156;28;19908;-70
2021/08/13 09:38:28;;;;;;;;;;;30.20;99.90;;;;;;5093998;28;20003;-70
2021/08/13 09:41:04;;;;;;;;;;;29.40;99.90;;;;;;5093760;28;20011;-70
2021/08/13 09:43:29;;;;;;;;;;;29.20;99.90;;;;;;5093756;28;19958;-70
2021/08/13 09:46:10;;;;;;;;;;;29.10;99.90;;;;;;5076042;28;19912;-70
2021/08/13 09:48:35;;;;;;;;;;;28.70;99.90;;;;;;5098175;28;19908;-72
2021/08/13 09:51:01;;;;;;;;;;;28.60;99.90;;;;;;5079343;28;19919;-72
2021/08/13 09:53:26;;;;;;;;;;;28.40;99.90;;;;;;5079515;28;19915;-72
2021/08/13 09:55:51;;;;;;;;;;;28.50;99.90;;;;;;5098425;28;19931;-71
2021/08/13 09:58:25;;;;;;;;;;;28.90;99.90;;;;;;5080003;28;19912;-71
2021/08/13 10:00:51;;;;;;;;;;;29.70;99.90;;;;;;5098016;28;19999;-71
2021/08/13 10:03:17;;;;;;;;;;;29.60;99.90;;;;;;5097938;28;19995;-71
2021/08/13 10:05:42;;;;;;;;;;;30.00;99.90;;;;;;5097935;28;19908;-72
2021/08/13 10:08:08;;;;;;;;;;;29.60;99.90;;;;;;5097876;28;19919;-73
2021/08/13 10:10:35;;;;;;;;;;;29.30;99.90;;;;;;5097853;28;19978;-73
2021/08/13 10:13:01;;;;;;;;;;;29.20;99.90;;;;;;5097847;28;20292;-72
2021/08/13 10:15:31;;;;;;;;;;;28.40;99.90;;;;;;5098072;28;19915;-72
2021/08/13 10:17:57;;;;;;;;;;;28.30;99.90;;;;;;5062697;28;19908;-72
2021/08/13 10:20:24;;;;;;;;;;;28.60;99.90;;;;;;5096992;28;19913;-72
2021/08/13 10:22:50;;;;;;;;;;;28.90;99.90;;;;;;5097201;28;19909;-72
2021/08/13 10:25:16;;;;;;;;;;;28.80;99.90;;;;;;5079036;28;19958;-72
2021/08/13 10:27:41;;;;;;;;;;;28.50;99.90;;;;;;5096548;28;19912;-72
2021/08/13 10:30:07;;;;;;;;;;;28.80;99.90;;;;;;5096950;28;19916;-73
2021/08/13 10:32:33;;;;;;;;;;;29.40;99.90;;;;;;5097068;28;19908;-72
2021/08/13 10:34:58;;;;;;;;;;;28.80;99.90;;;;;;5097373;28;19933;-73
2021/08/13 10:37:25;;;;;;;;;;;29.30;99.90;;;;;;5097370;28;19908;-73
2021/08/13 10:39:53;;;;;;;;;;;29.30;99.90;;;;;;5097047;28;19909;-73
2021/08/13 10:42:21;;;;;;;;;;;28.80;99.90;;;;;;5097355;28;19968;-72
2021/08/13 10:44:53;;;;;;;;;;;28.40;99.90;;;;;;5078798;28;19912;-72
2021/08/13 10:47:21;;;;;;;;;;;28.10;99.90;;;;;;5097192;28;19915;-72
2021/08/13 10:49:48;;;;;;;;;;;27.80;99.90;;;;;;5078939;28;20364;-72
2021/08/13 10:52:13;;;;;;;;;;;27.70;99.90;;;;;;5096813;28;19912;-72
2021/08/13 10:54:41;;;;;;;;;;;27.80;99.90;;;;;;5096806;28;19908;-72
2021/08/13 10:57:07;;;;;;;;;;;28.00;99.90;;;;;;5096677;28;19908;-72
2021/08/13 11:02:19;;;;;;;;;;;27.80;99.90;;;;;;5131937;27;19928;-72
2021/08/13 11:04:46;;;;;;;;;;;28.30;99.90;;;;;;5111520;28;20325;-72
2021/08/13 11:07:12;;;;;;;;;;;28.00;99.90;;;;;;5111620;28;19912;-71
2021/08/13 11:09:38;;;;;;;;;;;27.90;99.90;;;;;;5110252;28;20380;-73
2021/08/13 11:12:05;;;;;;;;;;;27.80;99.90;;;;;;5127350;27;20343;-72
2021/08/13 11:14:33;;;;;;;;;;;27.70;99.90;;;;;;5111237;28;19947;-71
2021/08/13 11:16:59;;;;;;;;;;;28.00;99.90;;;;;;5111511;28;19957;-71
2021/08/13 11:19:24;;;;;;;;;;;27.60;99.90;;;;;;5111306;28;19908;-71
2021/08/13 11:21:51;;;;;;;;;;;27.60;99.90;;;;;;5111312;28;19923;-72
2021/08/13 11:24:18;;;;;;;;;;;27.50;99.90;;;;;;5111272;28;19912;-71
2021/08/13 11:29:33;;;;;;;;;;;27.30;99.90;;;;;;5091761;27;19916;-72
2021/08/13 11:32:01;;;;;;;;;;;27.20;99.90;;;;;;5091205;28;20282;-72
2021/08/13 11:34:46;;;;;;;;;;;26.80;99.90;;;;;;5091303;28;19916;-72
2021/08/13 11:37:32;;;;;;;;;;;26.50;99.90;;;;;;5091275;28;19908;-72
2021/08/13 11:39:59;;;;;;;;;;;26.90;99.90;;;;;;5089891;28;19931;-72
2021/08/13 11:42:30;;;;;;;;;;;27.60;99.90;;;;;;5091473;28;20350;-72
2021/08/13 11:44:56;;;;;;;;;;;28.30;99.90;;;;;;5090460;28;19958;-72
2021/08/13 11:47:22;;;;;;;;;;;28.50;99.90;;;;;;5089213;28;19920;-72
2021/08/13 11:49:48;;;;;;;;;;;28.40;99.90;;;;;;5090817;28;19915;-70
2021/08/13 11:52:17;;;;;;;;;;;28.30;99.90;;;;;;5089315;28;20007;-72
2021/08/13 11:54:43;;;;;;;;;;;28.20;99.90;;;;;;5090682;28;19912;-72
2021/08/13 11:57:17;;;;;;;;;;;28.10;99.90;;;;;;5088385;28;20449;-72
2021/08/13 11:59:43;;;;;;;;;;;27.60;99.90;;;;;;5090732;28;20409;-72
2021/08/13 12:02:09;;;;;;;;;;;27.80;99.90;;;;;;5089751;28;20383;-72
2021/08/13 12:04:34;;;;;;;;;;;27.50;99.90;;;;;;5089505;28;19908;-72
2021/08/13 12:07:01;;;;;;;;;;;27.00;99.90;;;;;;5091000;28;19912;-72
2021/08/13 12:09:36;;;;;;;;;;;26.90;99.90;;;;;;5090933;28;20063;-71
2021/08/13 12:12:01;;;;;;;;;;;26.60;99.90;;;;;;5090898;28;19909;-71
2021/08/13 12:14:27;;;;;;;;;;;26.50;99.90;;;;;;5090626;28;20380;-72
2021/08/13 12:16:54;;;;;;;;;;;26.20;99.90;;;;;;5090442;28;19915;-72
2021/08/13 12:19:21;;;;;;;;;;;26.30;99.90;;;;;;5090451;28;20236;-72
2021/08/13 12:21:54;;;;;;;;;;;26.60;99.90;;;;;;5090744;28;19909;-71
2021/08/13 12:27:13;;;;;;;;;;;27.10;99.90;;;;;;5092224;27;19919;-71
2021/08/13 12:29:39;;;;;;;;;;;27.10;99.90;;;;;;5092081;28;19995;-71
2021/08/13 12:32:06;;;;;;;;;;;26.70;99.90;;;;;;5124480;28;20308;-71
2021/08/13 12:34:32;;;;;;;;;;;26.70;99.90;;;;;;5091690;28;20341;-71
2021/08/13 12:36:59;;;;;;;;;;;26.90;99.90;;;;;;5090753;28;19935;-71
2021/08/13 12:39:25;;;;;;;;;;;26.90;99.90;;;;;;5090807;28;19912;-71
2021/08/13 12:41:51;;;;;;;;;;;26.90;99.90;;;;;;5091388;28;20376;-71
2021/08/13 12:44:17;;;;;;;;;;;26.90;99.90;;;;;;5091257;28;19908;-71
2021/08/13 12:46:43;;;;;;;;;;;26.80;99.90;;;;;;5090741;28;19939;-71
2021/08/13 12:49:09;;;;;;;;;;;26.80;99.90;;;;;;5091072;28;20273;-70
2021/08/13 12:51:34;;;;;;;;;;;26.40;99.90;;;;;;5089577;28;19908;-71
2021/08/13 12:54:01;;;;;;;;;;;26.70;99.90;;;;;;5091103;28;19915;-71
2021/08/13 12:56:26;;;;;;;;;;;26.80;99.90;;;;;;5090990;28;19908;-71
2021/08/13 12:58:52;;;;;;;;;;;26.70;99.90;;;;;;5091069;28;19908;-71
2021/08/13 13:01:33;;;;;;;;;;;26.50;99.90;;;;;;5090990;28;20274;-70
2021/08/13 13:04:08;;;;;;;;;;;26.50;99.90;;;;;;5091030;28;19908;-71
2021/08/13 13:06:33;;;;;;;;;;;26.60;99.90;;;;;;5090852;28;20015;-71
2021/08/13 13:08:59;;;;;;;;;;;26.70;99.90;;;;;;5090901;28;19955;-71
2021/08/13 13:11:25;;;;;;;;;;;26.80;99.90;;;;;;5123354;28;19962;-70
2021/08/13 13:13:53;;;;;;;;;;;26.80;99.90;;;;;;5090669;28;19951;-71
2021/08/13 13:16:18;;;;;;;;;;;26.80;99.90;;;;;;5090692;28;19908;-71
2021/08/13 13:18:44;;;;;;;;;;;26.70;99.90;;;;;;5090720;28;19962;-70
2021/08/13 13:21:26;;;;;;;;;;;26.80;99.90;;;;;;5090687;28;20281;-71
2021/08/13 13:23:51;;;;;;;;;;;26.90;99.90;;;;;;5123559;28;19908;-71
2021/08/13 13:26:17;;;;;;;;;;;26.90;99.90;;;;;;5089060;28;20020;-71
2021/08/13 13:28:43;;;;;;;;;;;27.00;99.90;;;;;;5123453;28;19999;-71
2021/08/13 13:31:11;;;;;;;;;;;27.10;99.90;;;;;;5088664;28;19919;-71
2021/08/13 13:33:37;;;;;;;;;;;26.90;99.90;;;;;;5090136;28;19909;-71
2021/08/13 13:36:04;;;;;;;;;;;27.00;99.90;;;;;;5089927;28;19920;-71
2021/08/13 13:38:30;;;;;;;;;;;26.80;99.90;;;;;;5077273;28;20006;-71
2021/08/13 13:40:56;;;;;;;;;;;26.70;99.90;;;;;;5076317;28;19948;-70
2021/08/13 13:43:22;;;;;;;;;;;26.90;99.90;;;;;;5076508;28;19951;-72
2021/08/13 13:45:50;;;;;;;;;;;26.40;99.90;;;;;;5076761;28;19912;-72
2021/08/13 13:48:15;;;;;;;;;;;26.50;99.90;;;;;;5076449;28;20380;-72
2021/08/13 13:50:41;;;;;;;;;;;26.50;99.90;;;;;;5076306;28;19908;-72
2021/08/13 13:53:06;;;;;;;;;;;26.50;99.90;;;;;;5075967;28;20347;-72
2021/08/13 13:55:32;;;;;;;;;;;26.40;99.90;;;;;;5074037;28;19913;-72
2021/08/13 14:01:02;;;;;;;;;;;26.40;99.90;;;;;;5075969;28;20368;-72
2021/08/13 14:03:28;;;;;;;;;;;26.30;99.90;;;;;;5076681;28;19908;-72
2021/08/13 14:05:53;;;;;;;;;;;26.40;99.90;;;;;;5076289;28;20387;-72
2021/08/13 14:08:19;;;;;;;;;;;26.30;99.90;;;;;;5076286;28;20350;-72
2021/08/13 14:10:44;;;;;;;;;;;26.40;99.90;;;;;;5076248;28;19915;-72
2021/08/13 14:13:10;;;;;;;;;;;26.50;99.90;;;;;;5075799;28;19947;-72
2021/08/13 14:15:36;;;;;;;;;;;26.40;99.90;;;;;;5075385;28;20424;-72
2021/08/13 14:18:02;;;;;;;;;;;26.60;99.90;;;;;;5075882;28;19934;-72
2021/08/13 14:20:27;;;;;;;;;;;26.70;99.90;;;;;;5108863;28;19908;-72
2021/08/13 14:22:53;;;;;;;;;;;26.80;99.90;;;;;;5076053;28;19954;-72